Time;durP1;ratioP1;P1;durP2;ratioP2;P2;SDS_P1;SDS_P2;PMS_P1;PMS_P2;Temp;Humidity;BMP_temperature;BMP_pressure;BME280_temperature;BME280_humidity;BME280_pressure;Samples;Min_cycle;Max_cycle;Signal;HPM_P1;HPM_P2
2021/05/15 00:01:07;;;;;;;4.22;2.53;;;;;;;31.97;17.67;94075.38;5115084;28;20051;-43
2021/05/15 00:03:35;;;;;;;4.43;2.40;;;;;;;32.00;17.66;94069.88;5105504;28;20048;-43
2021/05/15 00:06:03;;;;;;;4.28;2.42;;;;;;;31.75;17.73;94076.00;5074316;28;20045;-43
2021/05/15 00:08:31;;;;;;;4.57;2.55;;;;;;;31.64;17.61;94070.09;5081779;28;20048;-43
2021/05/15 00:10:58;;;;;;;4.20;1.92;;;;;;;32.19;17.05;94070.88;5114641;28;20044;-43
2021/05/15 00:13:26;;;;;;;3.95;2.08;;;;;;;31.43;17.59;94076.06;5114796;28;20067;-43
2021/05/15 00:15:53;;;;;;;4.45;2.17;;;;;;;32.41;16.71;94065.59;5114778;28;20044;-44
2021/05/15 00:18:20;;;;;;;4.10;2.80;;;;;;;32.22;17.21;94075.41;5106893;28;20048;-43
2021/05/15 00:20:48;;;;;;;3.72;2.30;;;;;;;32.34;16.95;94066.59;5094938;28;20052;-44
2021/05/15 00:23:15;;;;;;;4.53;2.45;;;;;;;32.66;16.83;94059.41;5114435;28;20047;-43
2021/05/15 00:25:42;;;;;;;4.65;2.55;;;;;;;32.19;17.24;94065.47;5114981;28;20370;-43
2021/05/15 00:28:09;;;;;;;4.50;2.50;;;;;;;31.76;17.67;94066.72;5113912;28;20450;-43
2021/05/15 00:30:36;;;;;;;3.30;2.20;;;;;;;31.78;17.36;94066.28;5114593;28;20047;-43
2021/05/15 00:33:04;;;;;;;4.63;2.38;;;;;;;31.17;18.30;94075.97;5084677;28;20127;-42
2021/05/15 00:35:31;;;;;;;3.55;2.40;;;;;;;31.76;17.55;94085.63;5093298;28;20048;-44
2021/05/15 00:37:58;;;;;;;3.90;2.60;;;;;;;31.44;17.59;94072.19;5005798;22;20061;-43
2021/05/15 00:40:25;;;;;;;4.88;2.88;;;;;;;30.99;18.21;94071.00;5034121;28;20371;-44
2021/05/15 00:42:53;;;;;;;4.55;2.75;;;;;;;32.57;16.73;94072.84;5034171;28;20468;-46
2021/05/15 00:45:21;;;;;;;4.90;2.60;;;;;;;31.97;17.51;94076.13;5033962;28;20129;-43
2021/05/15 00:47:48;;;;;;;4.13;2.78;;;;;;;32.33;17.06;94075.13;5033319;28;20041;-44
2021/05/15 00:50:15;;;;;;;3.80;2.70;;;;;;;31.90;17.68;94073.66;5033638;28;20080;-44
2021/05/15 00:52:43;;;;;;;7.95;2.80;;;;;;;32.47;16.88;94074.69;5033775;28;20041;-48
2021/05/15 00:55:12;;;;;;;3.80;2.40;;;;;;;31.56;17.87;94074.94;5033838;28;20049;-44
2021/05/15 00:57:40;;;;;;;5.20;2.92;;;;;;;31.80;17.52;94072.78;5033531;28;20053;-45
2021/05/15 01:00:12;;;;;;;7.80;2.88;;;;;;;31.70;17.52;94071.06;5033842;28;20049;-46
2021/05/15 01:02:40;;;;;;;4.38;2.60;;;;;;;30.73;19.00;94069.34;5034613;28;20057;-46
2021/05/15 01:05:10;;;;;;;4.60;2.70;;;;;;;31.52;17.92;94078.94;5037483;28;20052;-44
2021/05/15 01:07:43;;;;;;;5.43;3.70;;;;;;;31.58;17.37;94077.22;5036246;28;20053;-43
2021/05/15 01:10:13;;;;;;;6.72;3.63;;;;;;;31.78;17.68;94074.38;5037508;28;20053;-46
2021/05/15 01:12:52;;;;;;;3.80;2.80;;;;;;;31.08;18.18;94080.44;5037234;28;20053;-44
2021/05/15 01:15:25;;;;;;;5.45;3.42;;;;;;;31.34;18.21;94067.84;5031719;28;20065;-44
2021/05/15 01:17:54;;;;;;;4.75;2.45;;;;;;;31.13;18.25;94080.66;5019318;28;20057;-50
2021/05/15 01:20:22;;;;;;;4.80;2.80;;;;;;;31.32;17.96;94081.00;5037428;28;20468;-50
2021/05/15 01:22:50;;;;;;;6.28;2.78;;;;;;;31.08;18.07;94078.47;5037433;28;20116;-44
2021/05/15 01:25:18;;;;;;;5.82;3.03;;;;;;;31.04;18.05;94072.41;5037252;28;20380;-44
2021/05/15 01:27:46;;;;;;;8.68;2.70;;;;;;;31.53;17.51;94075.81;5036589;28;20056;-44
2021/05/15 01:30:14;;;;;;;6.55;2.80;;;;;;;30.53;18.56;94066.69;5037029;28;20042;-43
2021/05/15 01:32:45;;;;;;;4.93;2.50;;;;;;;30.88;18.29;94064.34;5037135;28;20054;-44
2021/05/15 01:35:15;;;;;;;5.38;3.15;;;;;;;31.05;18.04;94073.94;5037248;28;20048;-47
2021/05/15 01:37:42;;;;;;;5.90;2.58;;;;;;;31.24;17.88;94067.69;5035381;28;20061;-44
2021/05/15 01:40:12;;;;;;;4.00;2.20;;;;;;;31.40;17.76;94064.19;5036907;28;20049;-43
2021/05/15 01:42:40;;;;;;;6.40;2.67;;;;;;;31.23;18.10;94063.47;5035785;28;20053;-46
2021/05/15 01:45:07;;;;;;;6.28;2.70;;;;;;;30.75;18.37;94066.97;5036491;28;20124;-44
2021/05/15 01:47:36;;;;;;;4.97;2.90;;;;;;;30.87;18.55;94062.81;5036770;28;20460;-50
2021/05/15 01:50:04;;;;;;;4.65;2.67;;;;;;;31.21;17.97;94071.22;5035953;28;20060;-43
2021/05/15 01:52:32;;;;;;;4.97;2.88;;;;;;;31.74;17.38;94074.47;5036910;28;20041;-45
2021/05/15 01:55:01;;;;;;;5.40;2.58;;;;;;;31.57;17.85;94064.91;5036749;28;20057;-44
2021/05/15 01:57:28;;;;;;;4.75;2.55;;;;;;;30.75;18.45;94063.50;5019210;28;20042;-44
2021/05/15 01:59:56;;;;;;;4.05;2.50;;;;;;;30.24;18.96;94066.56;5035818;28;20064;-43
2021/05/15 02:02:23;;;;;;;2.90;1.90;;;;;;;30.83;18.43;94062.91;5036435;28;20049;-44
2021/05/15 02:04:50;;;;;;;4.50;2.30;;;;;;;30.92;18.35;94059.59;5036276;28;20064;-44
2021/05/15 02:07:21;;;;;;;4.43;2.55;;;;;;;30.69;18.27;94064.00;5035987;28;20045;-44
2021/05/15 02:09:48;;;;;;;6.05;2.25;;;;;;;30.55;18.68;94068.94;5035799;28;20064;-43
2021/05/15 02:12:15;;;;;;;4.28;2.35;;;;;;;30.87;18.32;94068.22;5036422;28;20486;-44
2021/05/15 02:14:42;;;;;;;5.28;2.45;;;;;;;30.56;18.57;94065.84;5036195;28;20053;-44
2021/05/15 02:17:09;;;;;;;3.47;2.10;;;;;;;30.94;17.98;94070.72;5035936;28;20053;-43
2021/05/15 02:19:36;;;;;;;6.43;2.40;;;;;;;30.90;18.32;94061.97;5035650;28;20042;-45
2021/05/15 02:22:04;;;;;;;4.22;1.85;;;;;;;30.38;18.62;94060.09;5035790;28;20050;-44
2021/05/15 02:24:31;;;;;;;4.13;2.42;;;;;;;30.22;18.93;94065.47;5035952;28;20353;-43
2021/05/15 02:26:58;;;;;;;4.10;2.30;;;;;;;30.44;18.50;94068.41;5026590;28;20056;-43
2021/05/15 02:29:25;;;;;;;4.80;2.25;;;;;;;30.72;18.52;94061.66;5028799;28;20466;-45
2021/05/15 02:31:53;;;;;;;5.18;2.40;;;;;;;30.02;18.99;94050.06;5032009;28;20057;-44
2021/05/15 02:34:21;;;;;;;4.18;2.50;;;;;;;30.32;18.84;94046.34;5036046;28;20045;-44
2021/05/15 02:36:48;;;;;;;2.97;1.90;;;;;;;31.33;18.09;94050.13;5034303;28;20075;-44
2021/05/15 02:39:15;;;;;;;2.88;1.98;;;;;;;30.85;18.13;94049.00;5035715;28;20375;-43
2021/05/15 02:41:42;;;;;;;3.45;2.08;;;;;;;30.51;18.66;94050.16;5035452;28;20056;-42
2021/05/15 02:44:10;;;;;;;3.70;2.05;;;;;;;30.72;18.77;94056.25;5033828;28;20363;-44
2021/05/15 02:46:37;;;;;;;2.53;1.80;;;;;;;30.36;19.08;94054.34;5033693;28;20049;-44
2021/05/15 02:49:04;;;;;;;2.75;1.90;;;;;;;30.76;18.28;94059.63;5035342;28;20352;-44
2021/05/15 02:51:31;;;;;;;3.97;1.80;;;;;;;29.86;19.12;94047.31;5018478;28;20064;-44
2021/05/15 02:53:58;;;;;;;5.18;1.60;;;;;;;30.31;18.90;94054.84;5035658;28;20060;-42
2021/05/15 02:56:25;;;;;;;2.67;1.45;;;;;;;31.19;18.09;94065.50;5034918;28;20100;-48
2021/05/15 02:58:52;;;;;;;3.38;1.50;;;;;;;31.13;18.13;94056.38;5035366;28;20460;-50
2021/05/15 03:01:20;;;;;;;3.30;1.30;;;;;;;30.67;18.25;94055.56;5035233;28;20064;-44
2021/05/15 03:03:47;;;;;;;3.67;1.80;;;;;;;31.11;17.95;94047.94;5035379;28;20052;-44
2021/05/15 03:06:14;;;;;;;4.78;1.75;;;;;;;30.47;18.45;94046.78;5034325;28;20057;-43
2021/05/15 03:08:42;;;;;;;4.47;2.15;;;;;;;31.26;17.47;94051.06;5035119;28;20037;-44
2021/05/15 03:11:09;;;;;;;3.83;1.60;;;;;;;30.78;18.04;94054.56;5035481;28;20049;-43
2021/05/15 03:13:36;;;;;;;3.65;1.70;;;;;;;30.79;17.98;94056.09;5034401;28;20368;-43
2021/05/15 03:16:03;;;;;;;3.65;1.80;;;;;;;29.83;19.33;94052.78;5034796;28;20056;-43
2021/05/15 03:18:33;;;;;;;3.75;2.05;;;;;;;30.54;18.66;94062.03;5031197;28;20046;-43
2021/05/15 03:21:00;;;;;;;3.97;1.90;;;;;;;31.09;17.93;94063.03;5034979;28;20068;-44
2021/05/15 03:23:28;;;;;;;5.97;2.15;;;;;;;30.87;18.12;94060.13;5035160;28;20049;-50
2021/05/15 03:25:55;;;;;;;3.58;1.67;;;;;;;30.97;18.11;94061.81;5034638;28;20057;-45
2021/05/15 03:28:22;;;;;;;2.38;1.77;;;;;;;29.97;19.30;94053.25;5034864;28;20041;-43
2021/05/15 03:30:50;;;;;;;4.05;2.00;;;;;;;30.47;18.73;94062.97;5034998;28;20056;-43
2021/05/15 03:33:17;;;;;;;4.60;2.00;;;;;;;31.23;18.60;94066.19;5035361;28;20064;-43
2021/05/15 03:35:44;;;;;;;7.30;2.17;;;;;;;34.46;15.65;94057.03;5019853;28;20372;-43
2021/05/15 03:38:11;;;;;;;2.92;1.60;;;;;;;35.54;14.33;94057.69;5018941;28;20061;-43
2021/05/15 03:40:39;;;;;;;2.88;1.58;;;;;;;33.36;16.00;94061.03;5023722;28;20069;-46
2021/05/15 03:43:13;;;;;;;3.35;1.90;;;;;;;32.50;17.36;94052.94;5015956;28;20456;-43
2021/05/15 03:45:40;;;;;;;4.22;2.08;;;;;;;31.74;17.88;94058.25;5035170;28;20578;-44
2021/05/15 03:48:07;;;;;;;5.80;2.47;;;;;;;31.62;18.04;94066.31;5040178;28;20052;-47
2021/05/15 03:50:34;;;;;;;2.88;2.03;;;;;;;32.01;17.75;94060.59;5030045;28;20057;-44
2021/05/15 03:53:01;;;;;;;5.10;2.10;;;;;;;31.12;18.87;94068.34;5034875;28;20360;-47
2021/05/15 03:55:29;;;;;;;4.07;2.42;;;;;;;31.16;18.77;94069.03;5034525;28;20045;-45
2021/05/15 03:57:56;;;;;;;5.38;2.20;;;;;;;30.28;19.35;94066.47;5024234;28;20069;-43
2021/05/15 04:00:25;;;;;;;4.38;2.22;;;;;;;30.72;18.83;94061.66;5021635;28;20053;-51
2021/05/15 04:02:52;;;;;;;5.07;2.38;;;;;;;31.14;18.37;94065.97;5034815;28;20049;-44
2021/05/15 04:05:19;;;;;;;4.95;2.60;;;;;;;30.37;19.35;94069.34;5034131;28;20475;-52
2021/05/15 04:07:46;;;;;;;5.18;2.42;;;;;;;30.36;19.20;94065.91;5034110;28;20080;-48
2021/05/15 04:10:13;;;;;;;5.90;2.30;;;;;;;31.07;18.72;94068.88;5034185;28;20045;-44
2021/05/15 04:12:50;;;;;;;3.95;2.13;;;;;;;30.97;18.85;94046.38;5034310;28;20049;-46
2021/05/15 04:15:34;;;;;;;5.78;2.50;;;;;;;30.40;19.45;94068.50;5034079;28;20053;-44
2021/05/15 04:18:09;;;;;;;5.75;2.47;;;;;;;30.85;19.55;94065.19;5034277;28;20046;-50
2021/05/15 04:20:41;;;;;;;4.88;2.50;;;;;;;32.89;17.64;94058.34;5031460;28;20375;-45
2021/05/15 04:23:10;;;;;;;4.03;2.38;;;;;;;31.99;17.73;94059.50;5014733;28;20053;-42
2021/05/15 04:25:38;;;;;;;5.35;2.55;;;;;;;34.59;15.51;94059.63;5019863;28;20053;-42
2021/05/15 04:28:06;;;;;;;4.88;2.75;;;;;;;34.97;15.23;94058.56;5014917;28;20103;-47
2021/05/15 04:30:34;;;;;;;7.13;4.40;;;;;;;35.80;14.28;94062.81;5021960;28;20460;-49
2021/05/15 04:33:01;;;;;;;6.05;3.72;;;;;;;36.51;13.72;94061.59;5020789;28;20457;-43
2021/05/15 04:35:32;;;;;;;5.53;3.53;;;;;;;36.39;13.55;94055.88;5021434;28;20052;-41
2021/05/15 04:38:04;;;;;;;6.60;4.30;;;;;;;36.60;13.18;94065.00;5035545;28;20070;-42
2021/05/15 04:40:31;;;;;;;5.95;4.10;;;;;;;37.08;12.69;94053.41;5035421;28;20052;-42
2021/05/15 04:42:58;;;;;;;7.22;3.45;;;;;;;36.64;13.16;94053.94;5017183;28;20069;-42
2021/05/15 04:45:29;;;;;;;4.70;3.15;;;;;;;36.34;13.40;94053.03;5038197;28;20487;-43
2021/05/15 04:47:57;;;;;;;9.23;3.50;;;;;;;36.84;13.24;94047.97;5037443;28;20064;-48
2021/05/15 04:50:25;;;;;;;6.00;3.60;;;;;;;35.17;14.24;94053.47;5033927;28;20727;-42
2021/05/15 04:52:52;;;;;;;5.63;3.60;;;;;;;33.47;15.55;94044.41;5018273;28;20049;-41
2021/05/15 04:55:19;;;;;;;4.97;3.10;;;;;;;33.29;16.09;94039.56;5022865;28;20049;-43
2021/05/15 04:57:46;;;;;;;5.10;2.88;;;;;;;33.50;15.95;94033.44;5037330;28;20057;-41
2021/05/15 05:00:14;;;;;;;8.85;3.10;;;;;;;32.44;17.01;94021.47;5011075;28;20060;-46
2021/05/15 05:02:41;;;;;;;4.57;2.92;;;;;;;32.46;16.93;94029.91;5031087;28;20467;-40
2021/05/15 05:05:09;;;;;;;4.90;3.08;;;;;;;32.35;17.21;94024.84;5020935;28;20057;-42
2021/05/15 05:07:36;;;;;;;5.50;3.00;;;;;;;32.30;16.96;94022.69;5020152;28;20053;-41
2021/05/15 05:10:04;;;;;;;6.90;2.92;;;;;;;32.60;16.61;94009.75;5037510;28;20064;-41
2021/05/15 05:12:32;;;;;;;5.68;2.90;;;;;;;31.98;17.72;93995.81;5037786;28;20352;-49
2021/05/15 05:14:59;;;;;;;3.55;2.75;;;;;;;32.85;16.91;93996.19;5036276;28;20057;-42
2021/05/15 05:17:26;;;;;;;6.38;3.10;;;;;;;32.84;17.21;93991.97;5037459;28;20052;-42
2021/05/15 05:19:53;;;;;;;6.90;3.70;;;;;;;32.08;17.55;94000.16;5037199;28;20049;-43
2021/05/15 05:22:20;;;;;;;5.22;3.17;;;;;;;32.41;17.83;94001.44;5037501;28;20052;-41
2021/05/15 05:24:47;;;;;;;8.95;3.63;;;;;;;32.70;17.13;93987.00;5037232;28;20060;-42
2021/05/15 05:27:18;;;;;;;8.13;4.07;;;;;;;31.96;17.70;93988.13;5037319;28;20057;-42
2021/05/15 05:29:45;;;;;;;6.72;3.92;;;;;;;32.50;17.82;93988.00;5037539;28;20041;-41
2021/05/15 05:32:13;;;;;;;6.88;3.90;;;;;;;31.88;18.26;93981.44;5037577;28;20057;-41
2021/05/15 05:34:40;;;;;;;7.88;3.97;;;;;;;33.03;17.19;93980.09;5036907;28;20041;-43
2021/05/15 05:37:07;;;;;;;5.93;3.88;;;;;;;32.77;17.53;93984.06;5036995;28;20076;-42
2021/05/15 05:39:36;;;;;;;9.40;4.00;;;;;;;32.99;17.10;93993.00;5036919;28;20479;-41
2021/05/15 05:42:05;;;;;;;7.65;4.35;;;;;;;33.60;16.73;93994.38;5037141;28;20448;-49
2021/05/15 05:44:32;;;;;;;7.50;4.60;;;;;;;32.91;17.11;94004.50;5036464;28;20049;-42
2021/05/15 05:46:59;;;;;;;6.95;4.35;;;;;;;33.05;17.13;93999.38;5036866;28;20061;-44
2021/05/15 05:49:27;;;;;;;6.78;4.82;;;;;;;32.97;16.77;94002.75;5036078;28;20052;-42
2021/05/15 05:51:55;;;;;;;5.57;4.55;;;;;;;33.13;16.89;94002.59;5019753;28;20065;-42
2021/05/15 05:54:22;;;;;;;7.35;4.38;;;;;;;33.02;17.11;93992.13;5036889;28;20049;-42
2021/05/15 05:56:49;;;;;;;6.35;4.57;;;;;;;33.85;16.42;93987.31;5036435;28;20053;-42
2021/05/15 05:59:16;;;;;;;9.45;4.82;;;;;;;33.40;16.43;93993.94;5036600;28;20444;-42
2021/05/15 06:01:48;;;;;;;7.05;4.85;;;;;;;33.39;16.59;94000.56;5036801;28;20050;-50
2021/05/15 06:04:16;;;;;;;8.00;5.13;;;;;;;33.56;16.87;93999.16;5019296;28;20476;-41
2021/05/15 06:06:43;;;;;;;7.05;4.63;;;;;;;33.28;16.75;94000.13;5036168;28;20045;-41
2021/05/15 06:09:19;;;;;;;7.30;4.30;;;;;;;33.88;16.24;94003.44;5036643;28;20456;-50
2021/05/15 06:11:47;;;;;;;8.48;4.40;;;;;;;33.98;16.69;93996.09;5016525;28;20050;-54
2021/05/15 06:14:14;;;;;;;8.93;4.40;;;;;;;33.60;16.79;94001.75;5026729;28;20068;-42
2021/05/15 06:16:41;;;;;;;6.00;5.20;;;;;;;34.57;16.05;94000.38;5032056;28;20049;-42
2021/05/15 06:19:08;;;;;;;8.48;5.07;;;;;;;33.89;16.92;94001.50;5026822;28;20053;-43
2021/05/15 06:21:35;;;;;;;6.68;5.10;;;;;;;34.36;16.09;93995.06;5036191;28;20045;-45
2021/05/15 06:24:03;;;;;;;6.13;4.72;;;;;;;34.62;16.21;93993.63;5036421;28;20479;-52
2021/05/15 06:26:30;;;;;;;7.28;4.47;;;;;;;34.06;16.74;93994.63;5035008;28;20049;-41
2021/05/15 06:28:57;;;;;;;5.60;3.85;;;;;;;34.36;16.25;93992.38;5035845;28;20057;-43
2021/05/15 06:31:25;;;;;;;7.47;4.10;;;;;;;34.85;15.31;93984.91;5031520;28;20360;-41
2021/05/15 06:33:52;;;;;;;8.40;4.20;;;;;;;34.73;15.36;93991.22;5028837;28;20053;-41
2021/05/15 06:36:19;;;;;;;5.88;4.00;;;;;;;34.83;15.92;93981.13;5029980;28;20053;-42
2021/05/15 06:38:47;;;;;;;4.93;2.97;;;;;;;35.29;15.72;93971.03;5021255;28;20046;-43
2021/05/15 06:41:14;;;;;;;5.35;3.60;;;;;;;35.14;15.63;93972.88;5031820;28;20052;-43
2021/05/15 06:43:44;;;;;;;6.10;3.10;;;;;;;34.89;16.18;93974.69;5035761;28;20041;-42
2021/05/15 06:46:11;;;;;;;4.72;3.53;;;;;;;34.97;15.52;93974.38;5035526;28;20057;-41
2021/05/15 06:48:38;;;;;;;5.50;3.28;;;;;;;35.10;15.78;93966.81;5034923;28;20053;-41
2021/05/15 06:51:05;;;;;;;7.47;3.40;;;;;;;35.25;15.72;93970.44;5026672;28;20361;-47
2021/05/15 06:53:32;;;;;;;3.90;2.65;;;;;;;35.17;15.34;93974.69;5016171;28;20061;-43
2021/05/15 06:56:00;;;;;;;3.63;2.38;;;;;;;35.71;15.38;93970.41;5022261;28;20348;-43
2021/05/15 06:58:27;;;;;;;4.45;2.70;;;;;;;35.77;14.66;93984.88;5015968;28;20054;-44
2021/05/15 07:00:54;;;;;;;4.95;2.08;;;;;;;35.64;15.16;93970.69;5032472;28;20045;-42
2021/05/15 07:03:21;;;;;;;6.45;2.13;;;;;;;36.66;14.17;93976.03;5030663;28;20054;-41
2021/05/15 07:05:48;;;;;;;4.45;2.10;;;;;;;35.97;14.58;93976.22;5024725;28;20080;-42
2021/05/15 07:08:16;;;;;;;4.32;2.35;;;;;;;36.40;14.37;93958.66;5035473;28;20065;-41
2021/05/15 07:10:43;;;;;;;3.45;2.00;;;;;;;36.29;14.16;93964.59;5035273;28;20360;-42
2021/05/15 07:13:10;;;;;;;5.57;2.05;;;;;;;37.01;13.71;93967.38;5030055;28;20053;-42
2021/05/15 07:15:37;;;;;;;5.32;2.55;;;;;;;36.69;14.35;93966.19;5034250;28;20045;-41
2021/05/15 07:18:04;;;;;;;5.90;2.50;;;;;;;37.14;13.64;93956.97;5016915;28;20457;-42
2021/05/15 07:20:32;;;;;;;4.78;2.50;;;;;;;36.61;14.05;93963.06;5016946;28;20052;-48
2021/05/15 07:22:59;;;;;;;5.78;2.67;;;;;;;36.69;13.54;93958.78;5015496;28;20464;-42
2021/05/15 07:25:26;;;;;;;4.78;2.40;;;;;;;36.22;14.23;93950.59;5020731;28;20046;-42
2021/05/15 07:27:53;;;;;;;4.07;2.33;;;;;;;36.33;14.40;93961.72;5035361;28;20060;-42
2021/05/15 07:30:20;;;;;;;4.82;2.15;;;;;;;36.08;14.70;93946.56;5034858;28;20046;-42
2021/05/15 07:32:48;;;;;;;4.57;2.20;;;;;;;37.06;13.93;93947.66;5035293;28;20057;-42
2021/05/15 07:35:16;;;;;;;3.08;2.20;;;;;;;37.39;13.01;93946.78;5034754;28;20048;-42
2021/05/15 07:37:43;;;;;;;4.90;2.25;;;;;;;36.58;14.06;93946.91;5034809;28;20084;-42
2021/05/15 07:40:10;;;;;;;3.67;2.13;;;;;;;36.69;14.17;93942.44;5035006;28;20053;-41
2021/05/15 07:42:37;;;;;;;5.38;1.95;;;;;;;36.78;13.92;93949.84;5035161;28;20049;-42
2021/05/15 07:45:05;;;;;;;5.00;2.40;;;;;;;36.57;14.21;93938.00;5034554;28;20083;-50
2021/05/15 07:47:32;;;;;;;6.80;2.42;;;;;;;36.91;14.21;93930.50;5034922;28;20045;-41
2021/05/15 07:50:00;;;;;;;4.10;2.33;;;;;;;36.89;14.45;93928.25;5026991;28;20054;-42
2021/05/15 07:52:28;;;;;;;3.92;2.03;;;;;;;37.25;14.01;93916.34;5015217;28;20050;-48
2021/05/15 07:54:55;;;;;;;3.20;1.98;;;;;;;37.41;13.80;93908.91;5015329;28;20064;-49
2021/05/15 07:57:23;;;;;;;4.90;1.92;;;;;;;36.85;13.83;93921.50;5034852;28;20415;-42
2021/05/15 07:59:51;;;;;;;5.40;2.55;;;;;;;37.02;13.89;93925.28;5034380;28;20057;-43
2021/05/15 08:02:18;;;;;;;6.93;2.08;;;;;;;36.65;14.24;93930.97;5034901;28;20045;-41
2021/05/15 08:04:45;;;;;;;3.45;1.95;;;;;;;36.69;14.08;93926.09;5034869;28;20053;-47
2021/05/15 08:07:13;;;;;;;3.78;1.80;;;;;;;36.88;13.44;93936.91;5034491;28;20049;-42
2021/05/15 08:09:40;;;;;;;3.35;1.52;;;;;;;37.07;13.71;93927.34;5033960;28;20037;-42
2021/05/15 08:12:07;;;;;;;4.22;1.90;;;;;;;36.95;13.41;93925.63;5036562;28;20113;-42
2021/05/15 08:14:34;;;;;;;3.55;1.75;;;;;;;36.92;13.10;93926.56;5038527;28;20372;-41
2021/05/15 08:17:01;;;;;;;3.35;1.73;;;;;;;37.07;13.49;93927.34;5038699;28;20056;-43
2021/05/15 08:19:29;;;;;;;4.28;1.63;;;;;;;36.94;13.65;93924.88;5038232;28;20060;-43
2021/05/15 08:21:56;;;;;;;3.63;1.88;;;;;;;37.32;13.65;93921.41;5038866;28;20376;-51
2021/05/15 08:24:23;;;;;;;4.50;1.65;;;;;;;37.00;13.62;93911.38;5038606;28;20057;-42
2021/05/15 08:26:51;;;;;;;3.92;2.03;;;;;;;37.18;13.18;93896.81;5038207;28;20053;-42
2021/05/15 08:29:21;;;;;;;3.15;1.80;;;;;;;37.45;13.65;93901.28;5036814;28;20080;-42
2021/05/15 08:31:48;;;;;;;4.35;2.33;;;;;;;37.33;13.76;93906.56;5038538;28;20475;-42
2021/05/15 08:34:15;;;;;;;4.78;2.00;;;;;;;38.01;13.49;93902.19;5038491;28;20056;-42
2021/05/15 08:36:43;;;;;;;5.95;2.40;;;;;;;37.24;14.10;93905.88;5037652;28;20376;-42
2021/05/15 08:39:10;;;;;;;4.00;2.80;;;;;;;37.68;14.08;93897.69;5037140;28;20053;-42
2021/05/15 08:41:37;;;;;;;5.60;3.08;;;;;;;37.86;13.14;93907.66;5038359;28;20056;-41
2021/05/15 08:44:06;;;;;;;5.38;2.90;;;;;;;37.61;13.56;93898.06;5038034;28;20060;-43
2021/05/15 08:46:33;;;;;;;4.72;2.50;;;;;;;37.83;13.03;93903.91;5038063;28;20478;-42
2021/05/15 08:49:06;;;;;;;6.28;2.58;;;;;;;37.49;13.16;93904.59;5020261;28;20057;-42
2021/05/15 08:51:34;;;;;;;3.80;2.08;;;;;;;37.65;13.15;93898.63;5037950;28;20490;-43
2021/05/15 08:54:02;;;;;;;6.20;2.10;;;;;;;37.75;12.80;93891.13;5038117;28;20061;-42
2021/05/15 08:56:30;;;;;;;4.10;1.92;;;;;;;37.56;12.56;93890.56;5038253;28;20049;-44
2021/05/15 08:58:57;;;;;;;3.10;1.83;;;;;;;37.69;12.55;93887.53;5037666;28;20515;-42
2021/05/15 09:01:25;;;;;;;6.28;2.10;;;;;;;37.90;13.09;93887.13;5037757;28;20483;-42
2021/05/15 09:03:52;;;;;;;2.92;1.80;;;;;;;37.68;13.35;93892.22;5037993;28;20456;-41
2021/05/15 09:06:20;;;;;;;3.63;2.00;;;;;;;37.89;12.52;93885.63;5037605;28;20068;-42
2021/05/15 09:08:49;;;;;;;4.30;1.98;;;;;;;37.75;12.99;93882.97;5037600;28;20448;-42
2021/05/15 09:11:16;;;;;;;4.53;1.67;;;;;;;37.65;12.76;93877.56;5037605;28;20050;-42
2021/05/15 09:13:54;;;;;;;5.90;2.30;;;;;;;38.10;12.83;93882.97;5037377;28;20041;-42
2021/05/15 09:16:22;;;;;;;5.10;1.90;;;;;;;37.51;13.28;93878.34;5037470;28;20053;-42
2021/05/15 09:18:49;;;;;;;4.75;1.95;;;;;;;37.74;13.06;93873.28;5037072;28;20482;-51
2021/05/15 09:21:19;;;;;;;5.63;2.17;;;;;;;37.69;12.40;93879.34;5037453;28;20057;-42
2021/05/15 09:23:49;;;;;;;5.90;2.75;;;;;;;37.60;12.94;93872.78;5036709;28;20060;-42
2021/05/15 09:26:18;;;;;;;6.07;2.83;;;;;;;38.02;12.58;93871.69;5037378;28;20064;-42
2021/05/15 09:28:48;;;;;;;5.07;2.83;;;;;;;38.04;12.53;93876.69;5037264;28;20052;-42
2021/05/15 09:31:17;;;;;;;7.30;2.35;;;;;;;38.13;12.63;93882.00;5037141;28;20049;-45
2021/05/15 09:33:56;;;;;;;6.43;2.50;;;;;;;37.02;13.06;93873.53;5037464;28;20064;-43
2021/05/15 09:36:24;;;;;;;5.95;2.17;;;;;;;37.91;12.19;93876.97;5036908;28;20064;-42
2021/05/15 09:39:06;;;;;;;4.30;2.05;;;;;;;37.90;12.12;93870.78;5037011;28;20052;-42
2021/05/15 09:41:45;;;;;;;8.10;2.30;;;;;;;37.42;12.57;93874.97;5037073;28;20060;-42
2021/05/15 09:44:15;;;;;;;5.00;2.22;;;;;;;37.88;12.76;93873.22;5036810;28;20045;-42
2021/05/15 09:46:43;;;;;;;4.03;1.88;;;;;;;37.31;14.54;93881.75;5036897;28;20065;-43
2021/05/15 09:49:11;;;;;;;7.72;2.10;;;;;;;37.08;13.67;93885.28;5036565;28;20068;-41
2021/05/15 09:51:48;;;;;;;4.40;1.85;;;;;;;37.57;13.38;93875.72;5036847;28;20494;-42
2021/05/15 09:54:25;;;;;;;4.18;1.92;;;;;;;37.66;13.11;93875.59;5036903;28;20057;-42
2021/05/15 09:57:18;;;;;;;4.35;1.95;;;;;;;37.66;14.01;93878.31;5036765;28;20053;-42
2021/05/15 09:59:49;;;;;;;5.82;1.73;;;;;;;37.34;13.60;93875.34;5030134;28;20045;-42
2021/05/15 10:02:18;;;;;;;4.88;2.08;;;;;;;37.51;14.32;93869.44;5023009;28;20050;-42
2021/05/15 10:04:48;;;;;;;4.13;1.85;;;;;;;37.35;14.19;93871.41;5017035;28;20449;-42
2021/05/15 10:07:25;;;;;;;4.20;1.98;;;;;;;37.13;13.79;93871.00;5015717;28;20065;-43
2021/05/15 10:09:52;;;;;;;3.97;1.88;;;;;;;37.27;14.18;93867.56;5025505;28;20042;-42
2021/05/15 10:12:20;;;;;;;5.55;2.15;;;;;;;37.58;13.34;93867.06;5035752;28;20057;-41
2021/05/15 10:14:48;;;;;;;3.38;1.80;;;;;;;37.55;13.37;93869.97;5036011;28;20045;-41
2021/05/15 10:17:15;;;;;;;5.28;2.10;;;;;;;37.09;14.01;93873.16;5018973;28;20057;-42
2021/05/15 10:19:43;;;;;;;3.13;1.70;;;;;;;37.45;14.94;93868.56;5035996;28;20049;-41
2021/05/15 10:22:10;;;;;;;5.28;2.00;;;;;;;37.58;14.50;93866.31;5036402;28;20052;-42
2021/05/15 10:24:38;;;;;;;4.13;2.10;;;;;;;37.00;14.18;93873.25;5035502;28;20052;-42
2021/05/15 10:27:07;;;;;;;4.78;2.22;;;;;;;37.23;13.90;93879.84;5018530;28;20045;-44
2021/05/15 10:29:43;;;;;;;4.82;3.40;;;;;;;37.03;14.43;93877.75;5017479;28;20375;-53
2021/05/15 10:32:22;;;;;;;7.00;2.65;;;;;;;36.66;14.79;93883.47;5036336;28;20052;-41
2021/05/15 10:35:00;;;;;;;5.68;2.00;;;;;;;36.83;14.35;93880.34;5035833;28;20056;-41
2021/05/15 10:37:31;;;;;;;3.53;1.90;;;;;;;36.23;14.68;93878.63;5036147;28;20448;-44
2021/05/15 10:39:58;;;;;;;5.35;1.85;;;;;;;36.68;14.87;93878.31;5036127;28;20076;-42
2021/05/15 10:42:30;;;;;;;3.10;1.52;;;;;;;35.94;15.09;93880.00;5019010;28;20060;-43
2021/05/15 10:44:58;;;;;;;5.60;1.80;;;;;;;37.39;14.35;93881.34;5035198;28;20439;-48
2021/05/15 10:47:25;;;;;;;8.50;2.80;;;;;;;38.21;13.63;93875.69;5022634;28;20479;-43
2021/05/15 10:50:16;;;;;;;4.43;2.30;;;;;;;38.52;13.88;93874.34;5012612;28;20041;-42
2021/05/15 10:52:51;;;;;;;4.22;1.92;;;;;;;39.11;13.46;93874.03;5016053;28;20058;-43
2021/05/15 10:55:35;;;;;;;3.70;2.10;;;;;;;39.40;13.05;93867.56;5002218;28;20045;-43
2021/05/15 10:58:13;;;;;;;3.63;1.70;;;;;;;38.83;13.92;93860.81;5035813;28;20049;-42
2021/05/15 11:00:41;;;;;;;4.30;1.80;;;;;;;39.61;12.99;93860.81;5035338;28;20045;-42
2021/05/15 11:03:09;;;;;;;2.85;2.00;;;;;;;39.80;13.05;93865.91;5007015;28;20061;-43
2021/05/15 11:05:47;;;;;;;4.15;2.00;;;;;;;39.38;13.12;93859.88;5021518;28;20049;-42
2021/05/15 11:08:23;;;;;;;3.17;1.80;;;;;;;39.55;12.83;93870.19;5035562;28;20065;-42
2021/05/15 11:10:51;;;;;;;5.45;1.90;;;;;;;39.20;13.25;93867.66;5035156;28;20875;-43
2021/05/15 11:13:19;;;;;;;4.88;3.30;;;;;;;38.12;13.44;93861.41;5035206;28;20387;-42
2021/05/15 11:15:47;;;;;;;4.28;2.70;;;;;;;39.04;13.06;93863.50;5034383;28;20333;-43
2021/05/15 11:18:28;;;;;;;4.43;2.30;;;;;;;39.68;12.75;93865.09;5035256;28;20395;-42
2021/05/15 11:21:00;;;;;;;;;;;;;;;39.64;12.61;93865.31;5008925;28;20060;-42
2021/05/15 11:23:27;;;;;;;;;;;;;;;39.53;12.70;93859.00;5035673;28;20331;-55
2021/05/15 11:25:57;;;;;;;4.07;2.33;;;;;;;39.84;12.56;93861.72;5033298;28;19917;-43
2021/05/15 11:28:26;;;;;;;9.25;2.03;;;;;;;39.44;13.28;93868.09;5035023;28;20053;-54
2021/05/15 11:30:54;;;;;;;5.57;2.40;;;;;;;39.08;13.26;93870.28;5035208;28;20079;-42
2021/05/15 11:33:23;;;;;;;4.25;2.90;;;;;;;39.43;12.47;93869.34;5035331;28;20061;-42
2021/05/15 11:35:52;;;;;;;7.72;3.40;;;;;;;37.36;14.50;93863.97;5034345;28;20053;-41
2021/05/15 11:38:30;;;;;;;3.90;2.80;;;;;;;37.57;13.87;93864.81;5022950;28;20065;-41
2021/05/15 11:41:01;;;;;;;6.13;3.10;;;;;;;38.06;14.50;93866.03;5015226;28;20061;-42